Verndale, MN (56481)

3:30 AM CDT on August 26, 2016 (GMT -0500)
Staples Municipal | | Change Station

Elev 1286 ft 46.38 °N, 94.81 °W | Updated 16 minutes ago

Overcast
Overcast
54 °F
Feels Like 54 °F
N
0
Wind Variable Wind from North

Today
High -- | Low -- °F
--% Chance of Precip.
Yesterday
High -- | Low -- °F
Precip. -- in
Pressure 30.13 in
Visibility 10.0 miles
Clouds Overcast 7500 ft
Dew Point 54 °F
Humidity 100%
Rainfall 0.00 in
Snow Depth Not available.
6:33 AM 8:09 PM
Last Quarter, 37% visible
METAR KSAZ 260814Z AUTO 00000KT 10SM OVC075 12/12 A3013 RMK AO2
Pressure 30.13 in
Visibility 10.0 miles
Clouds Overcast 7500 ft
Dew Point 54 °F
Humidity 100%
Rainfall 0.00 in
Snow Depth Not available.
6:33 AM 8:09 PM
Last Quarter, 37% visible
METAR KSAZ 260814Z AUTO 00000KT 10SM OVC075 12/12 A3013 RMK AO2

10-Day Weather Forecast

Almanac

Astronomy

Aug. 26, 2016 Rise Set
Actual Time
Civil Twilight
Nautical Twilight
Astronomical Twilight
Moon
Length of Visible Light
Length of Day
Tomorrow will be .
, % of the Moon is Illuminated

Today's Extremes

State Highs State Lows

Community

WunderPhotos

Upload Photos

1,935,062 photos uploaded!

WunderBlog® & News

Nearby

Air Quality

  Air Quality AQ Index Pollutant
Not available.

Snow Depth

Station Depth Elevation

Earthquake Activity

City Distance Mag. Time & Date
Minimum magnitude displayed is 2.5.

Coastal Water Temperatures

Place Temperature

Stations

Nearby Weather Stations

Station Location Temp. Windchill Dew Point Humidity Wind Precip. Elev Updated Type
                   

Watches & Warnings

There are currently no watches in effect.